Time;durP1;ratioP1;P1;durP2;ratioP2;P2;SDS_P1;SDS_P2;PMS_P1;PMS_P2;Temp;Humidity;BMP_temperature;BMP_pressure;BME280_temperature;BME280_humidity;BME280_pressure;Samples;Min_cycle;Max_cycle;Signal;HPM_P1;HPM_P2
2021/12/15 00:01:49;;;;;;;50.92;20.65;;;2.40;99.90;;;;;;5026969;28;20040;-73
2021/12/15 00:04:15;;;;;;;47.30;19.27;;;2.40;99.90;;;;;;5026619;28;20021;-74
2021/12/15 00:06:42;;;;;;;48.90;20.38;;;2.30;99.90;;;;;;5026922;28;20020;-73
2021/12/15 00:09:12;;;;;;;40.88;19.38;;;2.30;99.90;;;;;;5026973;28;20024;-73
2021/12/15 00:11:38;;;;;;;39.67;17.83;;;2.30;99.90;;;;;;5027837;28;20022;-73
2021/12/15 00:14:08;;;;;;;41.90;18.85;;;2.30;99.90;;;;;;5026797;28;20030;-74
2021/12/15 00:16:34;;;;;;;44.03;17.80;;;2.40;99.90;;;;;;5026342;28;20033;-73
2021/12/15 00:19:00;;;;;;;38.15;17.45;;;2.40;99.90;;;;;;5007601;28;20522;-73
2021/12/15 00:21:26;;;;;;;35.38;16.85;;;2.40;99.90;;;;;;5029152;28;20033;-75
2021/12/15 00:23:52;;;;;;;35.45;16.73;;;2.40;99.90;;;;;;5032045;28;20029;-73
2021/12/15 00:26:18;;;;;;;33.20;15.32;;;2.30;99.90;;;;;;5030590;28;20036;-74
2021/12/15 00:28:45;;;;;;;34.38;15.95;;;2.30;99.90;;;;;;5009925;28;20048;-73
2021/12/15 00:31:12;;;;;;;34.83;16.75;;;2.30;99.90;;;;;;5020349;28;20029;-73
2021/12/15 00:33:40;;;;;;;31.98;15.90;;;2.30;99.90;;;;;;5030322;28;20076;-73
2021/12/15 00:36:06;;;;;;;32.92;15.10;;;2.30;99.90;;;;;;5031591;28;20128;-74
2021/12/15 00:38:33;;;;;;;31.60;15.55;;;2.30;99.90;;;;;;5010213;28;20034;-73
2021/12/15 00:40:59;;;;;;;28.60;14.40;;;2.20;99.90;;;;;;5026252;28;20036;-73
2021/12/15 00:43:26;;;;;;;28.92;14.05;;;2.20;99.90;;;;;;5030719;28;20482;-74
2021/12/15 00:45:52;;;;;;;26.67;14.38;;;2.20;99.90;;;;;;5030280;28;20049;-74
2021/12/15 00:48:18;;;;;;;27.27;13.23;;;2.20;99.90;;;;;;5031142;28;20113;-73
2021/12/15 00:50:46;;;;;;;28.13;13.18;;;2.20;99.90;;;;;;5031897;28;20142;-73
2021/12/15 00:53:12;;;;;;;32.60;14.05;;;2.20;99.90;;;;;;5030179;28;20072;-73
2021/12/15 00:55:38;;;;;;;25.88;13.98;;;2.20;99.90;;;;;;5030049;28;20537;-73
2021/12/15 00:58:06;;;;;;;28.08;14.32;;;2.20;99.90;;;;;;5030798;28;20100;-74
2021/12/15 01:00:36;;;;;;;25.40;13.93;;;2.10;99.90;;;;;;5030513;28;20393;-73
2021/12/15 01:03:02;;;;;;;25.98;13.00;;;2.10;99.90;;;;;;5026721;28;20487;-73
2021/12/15 01:05:33;;;;;;;28.30;13.80;;;2.10;99.90;;;;;;5030246;28;20025;-73
2021/12/15 01:08:01;;;;;;;;;;;2.10;99.90;;;;;;5030747;28;20113;-74
2021/12/15 01:10:39;;;;;;;23.98;12.13;;;2.20;99.90;;;;;;5029814;28;23198;-73
2021/12/15 01:21:12;;;;;;;26.63;14.05;;;2.20;99.90;;;;;;5030563;28;20044;-74
2021/12/15 01:23:38;;;;;;;27.25;13.32;;;2.20;99.90;;;;;;5030752;28;20052;-75
2021/12/15 01:26:08;;;;;;;27.83;13.73;;;2.20;99.90;;;;;;5029643;28;20037;-73
2021/12/15 01:28:34;;;;;;;22.38;13.48;;;2.10;99.90;;;;;;5029661;28;20109;-74
2021/12/15 01:31:03;;;;;;;25.92;13.98;;;2.10;99.90;;;;;;5030004;28;20017;-73
2021/12/15 01:33:29;;;;;;;21.65;11.73;;;2.10;99.90;;;;;;5029788;28;20281;-73
2021/12/15 01:35:57;;;;;;;21.15;11.43;;;2.00;99.90;;;;;;5031457;28;20025;-74
2021/12/15 01:38:27;;;;;;;21.33;11.07;;;2.00;99.90;;;;;;5029072;28;20514;-73
2021/12/15 01:40:52;;;;;;;18.88;11.30;;;2.00;99.90;;;;;;5029561;28;20109;-73
2021/12/15 01:43:34;;;;;;;22.50;12.75;;;1.90;99.90;;;;;;5029579;28;20525;-73
2021/12/15 01:49:06;;;;;;;19.08;11.00;;;1.90;99.90;;;;;;5029667;28;20483;-73
2021/12/15 01:51:31;;;;;;;19.80;11.57;;;1.90;99.90;;;;;;5029763;28;20018;-72
2021/12/15 01:53:58;;;;;;;21.65;11.60;;;2.00;99.90;;;;;;5031096;28;20394;-72
2021/12/15 01:56:24;;;;;;;18.90;11.27;;;1.90;99.90;;;;;;5011538;28;20110;-72
2021/12/15 01:58:50;;;;;;;19.45;10.93;;;1.80;99.90;;;;;;5029160;28;20546;-72
2021/12/15 02:01:16;;;;;;;22.33;12.23;;;1.80;99.90;;;;;;5029246;28;20029;-73
2021/12/15 02:03:42;;;;;;;17.38;10.07;;;1.90;99.90;;;;;;5011139;28;20403;-72
2021/12/15 02:06:10;;;;;;;22.15;11.88;;;2.00;99.90;;;;;;5029813;28;20101;-73
2021/12/15 02:08:36;;;;;;;21.80;10.93;;;2.00;99.90;;;;;;5029815;28;20060;-74
2021/12/15 02:11:03;;;;;;;22.17;11.88;;;1.90;99.90;;;;;;5029032;28;20018;-72
2021/12/15 02:13:29;;;;;;;20.88;11.05;;;1.90;99.90;;;;;;5029118;28;20550;-74
2021/12/15 02:15:58;;;;;;;23.50;12.45;;;1.90;99.90;;;;;;5028872;28;20120;-73
2021/12/15 02:18:28;;;;;;;19.08;10.35;;;1.90;99.90;;;;;;5029430;28;20041;-73
2021/12/15 02:20:58;;;;;;;16.50;10.40;;;1.80;99.90;;;;;;5030183;28;20061;-73
2021/12/15 02:23:32;;;;;;;18.77;10.52;;;1.80;99.90;;;;;;5028201;28;20052;-73
2021/12/15 02:26:00;;;;;;;21.10;11.13;;;1.80;99.90;;;;;;5028983;28;20057;-73
2021/12/15 02:28:26;;;;;;;19.90;10.25;;;1.80;99.90;;;;;;5028585;28;20065;-73
2021/12/15 02:30:58;;;;;;;17.48;9.55;;;1.80;99.90;;;;;;5028617;28;20028;-73
2021/12/15 02:38:42;;;;;;;17.30;10.35;;;1.80;99.90;;;;;;5029818;28;20518;-73
2021/12/15 02:41:19;;;;;;;21.23;10.57;;;1.70;99.90;;;;;;5027974;28;20526;-73
2021/12/15 02:43:51;;;;;;;17.35;9.65;;;1.70;99.90;;;;;;5028268;28;20025;-73
2021/12/15 02:46:17;;;;;;;17.58;9.43;;;1.70;99.90;;;;;;5028134;28;20141;-73
2021/12/15 02:48:43;;;;;;;17.88;10.60;;;1.80;99.90;;;;;;5010872;28;20539;-72
2021/12/15 02:51:09;;;;;;;18.00;10.23;;;1.70;99.90;;;;;;5028668;28;20071;-72
2021/12/15 02:53:35;;;;;;;16.77;9.63;;;1.70;99.90;;;;;;5029287;28;20503;-73
2021/12/15 02:56:01;;;;;;;17.40;9.57;;;1.70;99.90;;;;;;5028303;28;20030;-72
2021/12/15 02:58:32;;;;;;;18.77;10.18;;;1.60;99.90;;;;;;5027944;28;20044;-72
2021/12/15 03:01:04;;;;;;;16.73;9.30;;;1.60;99.90;;;;;;5027717;28;20022;-72
2021/12/15 03:06:21;;;;;;;17.40;8.77;;;1.60;99.90;;;;;;5028704;28;20395;-73
2021/12/15 03:09:00;;;;;;;16.00;9.05;;;1.60;99.90;;;;;;5011522;28;20053;-73
2021/12/15 03:16:57;;;;;;;15.30;8.75;;;1.60;99.90;;;;;;5028535;28;20587;-72
2021/12/15 03:19:24;;;;;;;14.63;8.88;;;1.60;99.90;;;;;;5027688;28;20029;-72
2021/12/15 03:21:50;;;;;;;15.45;9.40;;;1.50;99.90;;;;;;5027943;28;20022;-73
2021/12/15 03:24:20;;;;;;;14.00;8.73;;;1.50;99.90;;;;;;5028159;28;20037;-73
2021/12/15 03:26:59;;;;;;;19.60;9.93;;;1.50;99.90;;;;;;5029340;28;20022;-73
2021/12/15 03:37:47;;;;;;;17.45;8.75;;;1.50;99.90;;;;;;4985719;28;20030;-72
2021/12/15 03:40:24;;;;;;;13.80;8.35;;;1.50;99.90;;;;;;4984904;28;20068;-72
2021/12/15 03:43:01;;;;;;;14.90;8.90;;;1.50;99.90;;;;;;4986014;28;20035;-72
2021/12/15 03:45:32;;;;;;;15.40;8.40;;;1.40;99.90;;;;;;4985622;28;20620;-72
2021/12/15 03:48:01;;;;;;;14.40;7.80;;;1.40;99.90;;;;;;4987394;28;20097;-72
2021/12/15 03:50:27;;;;;;;17.65;8.93;;;1.40;99.90;;;;;;4985498;28;20034;-71
2021/12/15 03:52:53;;;;;;;13.45;8.02;;;1.40;99.90;;;;;;4986533;28;20026;-72
2021/12/15 03:55:22;;;;;;;18.30;8.23;;;1.40;99.90;;;;;;4989421;28;20092;-71
2021/12/15 03:57:48;;;;;;;14.00;8.10;;;1.50;99.90;;;;;;4989527;28;20038;-72
2021/12/15 04:00:15;;;;;;;12.27;7.90;;;1.50;99.90;;;;;;4989861;28;20038;-73
2021/12/15 04:02:43;;;;;;;13.05;7.80;;;1.40;99.90;;;;;;4990615;28;20022;-72
2021/12/15 04:05:11;;;;;;;11.43;7.13;;;1.50;99.90;;;;;;4989029;28;20515;-72
2021/12/15 04:07:37;;;;;;;14.15;8.45;;;1.50;99.90;;;;;;4989199;28;20031;-72
2021/12/15 04:10:06;;;;;;;17.10;8.52;;;1.40;99.90;;;;;;5025389;28;20088;-72
2021/12/15 04:12:32;;;;;;;18.48;7.70;;;1.40;99.90;;;;;;5031203;28;20032;-72
2021/12/15 04:15:18;;;;;;;13.18;7.43;;;1.40;99.90;;;;;;5032453;28;20021;-72
2021/12/15 04:17:43;;;;;;;10.98;7.45;;;1.40;99.90;;;;;;5031929;28;20030;-73
2021/12/15 04:20:13;;;;;;;10.90;7.40;;;1.40;99.90;;;;;;5031234;28;20030;-72
2021/12/15 04:22:41;;;;;;;15.30;7.53;;;1.40;99.90;;;;;;5013469;28;20576;-72
2021/12/15 04:25:15;;;;;;;17.95;7.65;;;1.50;99.90;;;;;;5030780;28;20507;-72
2021/12/15 04:27:57;;;;;;;11.27;7.53;;;1.40;99.90;;;;;;4998651;28;20033;-72
2021/12/15 04:30:24;;;;;;;13.40;8.38;;;1.40;99.90;;;;;;5013073;28;20021;-73
2021/12/15 04:32:53;;;;;;;15.00;8.73;;;1.40;99.90;;;;;;5032318;28;20028;-72
2021/12/15 04:35:20;;;;;;;12.30;7.43;;;1.40;99.90;;;;;;5030574;28;20044;-73
2021/12/15 04:37:47;;;;;;;13.43;7.10;;;1.30;99.90;;;;;;5030403;28;20025;-72
2021/12/15 04:40:15;;;;;;;14.10;7.88;;;1.20;99.90;;;;;;5030810;28;20109;-72
2021/12/15 04:42:43;;;;;;;13.43;7.50;;;1.30;99.90;;;;;;5012757;28;20037;-72
2021/12/15 04:45:11;;;;;;;11.77;6.95;;;1.20;99.90;;;;;;5030754;28;20033;-72
2021/12/15 04:47:38;;;;;;;13.73;7.35;;;1.10;99.90;;;;;;5030917;28;20037;-72
2021/12/15 04:50:05;;;;;;;11.38;6.93;;;1.10;99.90;;;;;;5012743;28;20495;-72
2021/12/15 04:52:32;;;;;;;12.07;7.15;;;1.20;99.90;;;;;;5030503;28;20026;-72
2021/12/15 04:54:59;;;;;;;12.02;7.43;;;1.20;99.90;;;;;;5030691;28;20072;-72
2021/12/15 04:57:26;;;;;;;12.18;6.57;;;1.10;99.90;;;;;;5030837;28;20172;-72
2021/12/15 04:59:53;;;;;;;11.60;6.18;;;1.00;99.90;;;;;;5010900;28;20100;-72
2021/12/15 05:02:20;;;;;;;11.85;7.22;;;1.10;99.90;;;;;;5029084;28;20104;-72
2021/12/15 05:04:47;;;;;;;13.70;7.70;;;1.20;99.90;;;;;;5029950;28;20067;-72
2021/12/15 05:07:14;;;;;;;13.02;7.10;;;1.10;99.90;;;;;;5030157;28;20107;-72
2021/12/15 05:09:40;;;;;;;9.75;6.47;;;1.10;99.90;;;;;;5030446;28;20049;-72
2021/12/15 05:12:06;;;;;;;10.52;6.93;;;1.10;99.90;;;;;;5010193;28;20018;-72
2021/12/15 05:14:33;;;;;;;11.65;6.68;;;1.10;99.90;;;;;;5030378;28;20037;-72
2021/12/15 05:16:59;;;;;;;12.35;7.57;;;1.10;99.90;;;;;;5029495;28;20036;-72
2021/12/15 05:19:27;;;;;;;13.40;8.27;;;1.10;99.90;;;;;;5030001;28;20034;-72
2021/12/15 05:21:56;;;;;;;13.20;8.30;;;1.00;99.90;;;;;;5012192;28;20510;-72
2021/12/15 05:26:54;;;;;;;15.70;7.45;;;0.80;99.90;;;;;;5031537;28;20052;-72
2021/12/15 05:29:20;;;;;;;13.07;6.95;;;0.90;99.90;;;;;;5029914;28;20021;-72
2021/12/15 05:31:47;;;;;;;11.40;6.82;;;1.00;99.90;;;;;;5011633;28;20564;-72
2021/12/15 05:34:12;;;;;;;14.70;7.90;;;1.10;99.90;;;;;;5029346;28;20546;-71
2021/12/15 05:36:38;;;;;;;12.80;7.55;;;1.10;99.90;;;;;;5030067;28;20059;-72
2021/12/15 05:39:06;;;;;;;9.13;6.22;;;1.10;99.90;;;;;;5031058;28;20483;-72
2021/12/15 05:41:33;;;;;;;12.68;6.28;;;1.10;99.90;;;;;;5030315;28;20617;-71
2021/12/15 05:44:00;;;;;;;10.48;6.40;;;1.10;99.90;;;;;;5029520;28;20076;-71
2021/12/15 05:46:25;;;;;;;11.45;6.72;;;1.10;99.90;;;;;;5028673;28;20522;-71
2021/12/15 05:48:51;;;;;;;13.00;6.78;;;1.10;99.90;;;;;;5011908;28;20236;-71
2021/12/15 05:51:17;;;;;;;10.90;6.47;;;1.10;99.90;;;;;;5029688;28;20074;-71
2021/12/15 05:53:43;;;;;;;12.02;6.28;;;1.00;99.90;;;;;;5030638;28;20031;-71
2021/12/15 05:56:10;;;;;;;12.52;7.10;;;0.90;99.90;;;;;;5029617;28;20032;-71
2021/12/15 05:58:37;;;;;;;10.48;5.85;;;0.90;99.90;;;;;;5008001;28;20041;-71
2021/12/15 06:01:04;;;;;;;12.90;6.88;;;0.90;99.90;;;;;;5016908;28;20021;-72
2021/12/15 06:03:30;;;;;;;10.00;6.75;;;1.00;99.90;;;;;;5029052;28;20029;-71
2021/12/15 06:05:55;;;;;;;12.10;6.45;;;1.00;99.90;;;;;;5029657;28;20026;-71
2021/12/15 06:08:21;;;;;;;11.05;6.30;;;0.90;99.90;;;;;;5028486;28;20029;-71
2021/12/15 06:10:47;;;;;;;9.55;6.80;;;0.80;99.90;;;;;;5007901;28;20507;-73
2021/12/15 06:13:13;;;;;;;11.57;6.72;;;0.70;99.90;;;;;;5018324;28;20080;-71
2021/12/15 06:15:41;;;;;;;9.55;5.60;;;0.70;99.90;;;;;;5028515;28;20611;-71
2021/12/15 06:18:13;;;;;;;11.32;7.40;;;0.80;99.90;;;;;;5030316;28;20479;-71
2021/12/15 06:20:40;;;;;;;14.05;6.80;;;0.90;99.90;;;;;;5029955;28;20487;-71
2021/12/15 06:23:11;;;;;;;13.80;6.90;;;0.90;99.90;;;;;;5029031;28;20115;-71
2021/12/15 06:25:40;;;;;;;11.27;6.75;;;0.80;99.90;;;;;;5029039;28;20017;-71
2021/12/15 06:28:07;;;;;;;14.40;6.78;;;0.80;99.90;;;;;;5028573;28;20561;-71
2021/12/15 06:30:34;;;;;;;15.18;6.78;;;0.90;99.90;;;;;;5029219;28;20053;-71
2021/12/15 06:33:00;;;;;;;12.07;6.68;;;0.90;99.90;;;;;;5008956;28;20092;-71
2021/12/15 06:35:26;;;;;;;11.32;6.90;;;1.00;99.90;;;;;;5028194;28;20034;-71
2021/12/15 06:37:52;;;;;;;12.18;6.40;;;1.00;99.90;;;;;;5010432;28;20035;-71
2021/12/15 06:40:18;;;;;;;11.35;7.47;;;0.90;99.90;;;;;;5028449;28;20025;-71
2021/12/15 06:42:44;;;;;;;11.90;6.82;;;0.80;99.90;;;;;;5010505;28;20028;-71
2021/12/15 06:45:14;;;;;;;13.82;8.27;;;0.90;99.90;;;;;;5028544;28;20168;-71
2021/12/15 06:58:30;;;;;;;14.65;8.68;;;0.50;99.90;;;;;;5028487;28;20028;-71
2021/12/15 07:01:00;;;;;;;15.95;8.82;;;0.50;99.90;;;;;;5010461;28;20124;-71
2021/12/15 07:03:26;;;;;;;16.33;8.95;;;0.30;99.90;;;;;;5028364;28;20041;-71
2021/12/15 07:05:55;;;;;;;14.98;8.50;;;0.50;99.90;;;;;;5029559;28;20033;-71
2021/12/15 07:08:22;;;;;;;13.77;8.52;;;0.60;99.90;;;;;;5027803;28;20024;-71
2021/12/15 07:10:50;;;;;;;12.90;7.70;;;0.60;99.90;;;;;;5027644;28;20105;-70
2021/12/15 07:13:17;;;;;;;15.55;8.20;;;0.70;99.90;;;;;;5027416;28;20580;-71
2021/12/15 07:15:45;;;;;;;14.23;8.35;;;0.70;99.90;;;;;;5010171;28;20036;-71
2021/12/15 07:18:12;;;;;;;12.13;7.47;;;0.80;99.90;;;;;;5028670;28;20291;-70
2021/12/15 07:20:51;;;;;;;13.57;7.68;;;0.70;99.90;;;;;;5028581;28;20564;-71
2021/12/15 07:23:22;;;;;;;12.40;6.97;;;0.70;99.90;;;;;;5010002;28;20554;-70
2021/12/15 07:25:50;;;;;;;12.88;6.88;;;0.70;99.90;;;;;;5027317;28;20048;-71
2021/12/15 07:28:19;;;;;;;10.40;6.82;;;0.80;99.90;;;;;;5027196;28;20033;-71
2021/12/15 07:30:45;;;;;;;13.15;8.18;;;0.50;99.90;;;;;;5027964;28;20024;-70
2021/12/15 07:33:11;;;;;;;14.88;7.95;;;0.60;99.90;;;;;;5028384;28;20052;-70
2021/12/15 07:35:37;;;;;;;12.68;7.38;;;0.60;99.90;;;;;;5028605;28;20507;-71
2021/12/15 07:38:05;;;;;;;11.50;7.75;;;0.80;99.90;;;;;;5027819;28;20083;-71
2021/12/15 07:40:31;;;;;;;11.73;6.78;;;0.80;99.90;;;;;;5027139;28;20048;-70
2021/12/15 07:43:09;;;;;;;13.20;7.68;;;0.90;99.90;;;;;;5027489;28;20499;-70
2021/12/15 07:45:41;;;;;;;11.80;7.03;;;0.90;99.90;;;;;;5027618;28;20038;-70
2021/12/15 07:48:09;;;;;;;14.95;6.35;;;1.10;99.90;;;;;;5025128;28;20048;-71
2021/12/15 07:50:36;;;;;;;11.02;6.25;;;1.10;99.90;;;;;;5028513;28;20029;-71
2021/12/15 07:53:02;;;;;;;12.27;6.72;;;1.30;99.90;;;;;;5027484;28;20096;-71
2021/12/15 07:55:28;;;;;;;11.93;7.40;;;1.40;99.90;;;;;;5027257;28;20029;-70
2021/12/15 07:57:54;;;;;;;8.82;5.82;;;1.30;99.90;;;;;;5027843;28;20095;-71
2021/12/15 08:00:22;;;;;;;11.95;6.47;;;1.40;99.90;;;;;;5027833;28;20052;-72
2021/12/15 08:02:48;;;;;;;8.43;6.50;;;1.40;99.90;;;;;;5028951;28;20076;-73
2021/12/15 08:05:13;;;;;;;12.95;6.82;;;1.70;99.90;;;;;;5027323;28;20493;-73
2021/12/15 08:07:39;;;;;;;9.98;6.00;;;1.80;99.90;;;;;;5009725;28;20530;-72
2021/12/15 08:10:10;;;;;;;10.75;6.55;;;1.90;99.90;;;;;;5027541;28;20029;-71
2021/12/15 08:12:38;;;;;;;12.50;6.95;;;1.70;99.90;;;;;;5028231;28;20499;-72
2021/12/15 08:15:06;;;;;;;11.45;6.20;;;1.70;99.90;;;;;;5026286;28;20495;-72
2021/12/15 08:17:31;;;;;;;10.25;6.28;;;1.60;99.90;;;;;;5028002;28;20041;-72
2021/12/15 08:19:57;;;;;;;12.25;6.38;;;1.70;99.90;;;;;;5006233;28;20455;-72
2021/12/15 08:22:23;;;;;;;9.07;5.72;;;1.80;99.90;;;;;;5017902;28;20026;-72
2021/12/15 08:24:48;;;;;;;10.93;7.00;;;1.90;99.90;;;;;;5027149;28;20659;-72
2021/12/15 08:27:14;;;;;;;10.85;6.93;;;2.00;99.90;;;;;;5027721;28;20033;-72
2021/12/15 08:29:41;;;;;;;13.18;6.80;;;1.90;99.90;;;;;;5028606;28;20025;-72
2021/12/15 08:32:07;;;;;;;11.85;6.68;;;2.20;99.90;;;;;;5027319;28;20052;-72
2021/12/15 08:34:32;;;;;;;10.23;5.93;;;2.40;99.90;;;;;;5009315;28;20519;-72
2021/12/15 08:36:58;;;;;;;9.30;5.45;;;2.20;99.90;;;;;;5027186;28;20044;-72
2021/12/15 08:39:24;;;;;;;10.82;6.22;;;2.30;99.90;;;;;;5019400;28;20214;-72
2021/12/15 08:41:50;;;;;;;8.88;5.72;;;2.90;99.90;;;;;;5014269;28;20114;-72
2021/12/15 08:44:16;;;;;;;9.10;5.05;;;3.10;99.90;;;;;;5029596;28;20033;-72
2021/12/15 08:46:46;;;;;;;9.50;5.20;;;3.20;99.90;;;;;;5029999;28;20081;-72
2021/12/15 08:49:16;;;;;;;11.18;6.03;;;3.00;99.90;;;;;;5030110;28;20840;-72
2021/12/15 08:51:43;;;;;;;9.80;5.13;;;3.10;99.90;;;;;;5030101;28;20017;-72
2021/12/15 08:54:14;;;;;;;11.15;5.50;;;3.60;99.90;;;;;;5030802;28;20528;-72
2021/12/15 08:56:41;;;;;;;13.30;6.32;;;3.70;99.90;;;;;;5031227;28;20029;-72
2021/12/15 08:59:07;;;;;;;8.20;5.38;;;4.00;99.90;;;;;;5029601;28;20038;-73
2021/12/15 09:01:33;;;;;;;7.57;5.00;;;5.40;99.90;;;;;;5029874;28;20025;-72
2021/12/15 09:03:59;;;;;;;9.43;5.25;;;5.60;99.90;;;;;;5029953;28;20030;-73
2021/12/15 09:06:25;;;;;;;8.65;4.78;;;6.80;99.90;;;;;;5029711;28;20032;-73
2021/12/15 09:08:51;;;;;;;10.57;6.03;;;7.80;99.90;;;;;;5030915;28;20026;-73
2021/12/15 09:11:20;;;;;;;11.82;5.63;;;8.10;99.90;;;;;;5029410;28;20040;-73
2021/12/15 09:13:50;;;;;;;8.48;4.72;;;7.80;99.90;;;;;;5008490;28;20036;-74
2021/12/15 09:16:16;;;;;;;8.98;5.53;;;6.30;99.90;;;;;;5019109;28;20029;-73
2021/12/15 09:18:43;;;;;;;8.52;4.70;;;5.40;99.90;;;;;;5029376;28;20048;-73
2021/12/15 09:21:11;;;;;;;6.85;4.60;;;4.90;99.90;;;;;;5030319;28;20056;-73
2021/12/15 09:23:37;;;;;;;9.35;5.32;;;4.80;99.90;;;;;;5029767;28;20525;-73
2021/12/15 09:26:04;;;;;;;10.80;4.97;;;4.40;99.90;;;;;;5029548;28;20026;-73
2021/12/15 09:28:32;;;;;;;9.68;5.75;;;4.00;99.90;;;;;;5029327;28;20025;-73
2021/12/15 09:30:59;;;;;;;9.73;4.97;;;4.10;99.90;;;;;;5029215;28;20029;-73
2021/12/15 09:33:28;;;;;;;9.35;5.00;;;4.40;99.90;;;;;;5029649;28;20495;-73
2021/12/15 09:35:55;;;;;;;10.02;5.90;;;4.20;99.90;;;;;;5016754;28;20113;-73
2021/12/15 09:38:22;;;;;;;8.52;4.78;;;4.20;99.90;;;;;;5018273;28;20096;-73
2021/12/15 09:40:51;;;;;;;9.68;5.53;;;4.10;99.90;;;;;;5018709;28;20066;-73
2021/12/15 09:43:17;;;;;;;8.45;5.40;;;4.10;99.90;;;;;;5020123;28;20060;-73
2021/12/15 09:46:03;;;;;;;11.27;5.45;;;4.30;99.90;;;;;;5011595;28;20099;-73
2021/12/15 09:56:24;;;;;;;12.15;5.53;;;4.30;99.90;;;;;;5029975;28;20029;-73
2021/12/15 10:11:14;;;;;;;7.63;5.30;;;4.80;99.90;;;;;;5006045;28;20220;-73
2021/12/15 10:19:28;;;;;;;9.27;5.70;;;5.10;99.90;;;;;;4998114;28;20084;-73
2021/12/15 10:22:09;;;;;;;9.57;4.97;;;5.10;99.90;;;;;;5005055;28;20042;-73
2021/12/15 10:25:05;;;;;;;8.63;4.93;;;5.20;99.90;;;;;;5004570;28;20061;-74
2021/12/15 10:27:44;;;;;;;7.82;5.13;;;5.20;99.90;;;;;;5003935;28;20022;-73
2021/12/15 10:30:10;;;;;;;7.00;4.68;;;5.20;99.90;;;;;;4991392;28;20125;-73
2021/12/15 10:32:39;;;;;;;5.97;4.45;;;5.30;99.90;;;;;;5003119;28;20586;-73
2021/12/15 10:35:11;;;;;;;7.72;4.20;;;5.40;99.90;;;;;;4977250;28;20042;-73
2021/12/15 10:37:38;;;;;;;8.02;4.22;;;5.50;99.90;;;;;;4989712;28;20100;-73
2021/12/15 10:40:23;;;;;;;8.20;5.32;;;5.50;99.90;;;;;;4990573;28;20046;-73
2021/12/15 10:43:01;;;;;;;9.43;4.93;;;5.60;99.90;;;;;;4988504;28;20038;-73
2021/12/15 10:45:34;;;;;;;9.13;5.60;;;5.60;99.90;;;;;;4984121;28;20436;-73
2021/12/15 10:48:01;;;;;;;8.77;5.72;;;5.60;99.90;;;;;;4987507;28;20120;-73
2021/12/15 10:50:27;;;;;;;10.35;5.75;;;5.60;99.90;;;;;;4986323;28;20026;-73
2021/12/15 10:52:57;;;;;;;10.88;5.72;;;5.70;99.90;;;;;;4991202;28;20052;-74
2021/12/15 10:55:35;;;;;;;11.65;6.82;;;5.80;99.90;;;;;;5028359;28;20051;-73
2021/12/15 10:58:21;;;;;;;10.35;6.57;;;6.10;99.90;;;;;;5025483;28;20056;-73
2021/12/15 11:00:47;;;;;;;9.98;6.43;;;6.30;99.90;;;;;;5027908;28;20344;-73
2021/12/15 11:03:16;;;;;;;9.48;5.93;;;6.10;99.90;;;;;;5007870;28;20458;-73
2021/12/15 11:05:42;;;;;;;9.30;6.28;;;6.10;99.90;;;;;;5028881;28;20146;-73
2021/12/15 11:08:08;;;;;;;8.65;5.60;;;6.20;99.90;;;;;;5022662;28;20571;-74
2021/12/15 11:10:38;;;;;;;9.38;5.68;;;6.10;99.90;;;;;;5023948;28;20026;-74
2021/12/15 11:13:15;;;;;;;8.45;5.38;;;6.20;99.90;;;;;;5026444;28;20709;-73
2021/12/15 11:15:43;;;;;;;11.75;6.18;;;6.30;99.90;;;;;;4994104;28;20083;-73
2021/12/15 11:18:18;;;;;;;8.82;5.70;;;6.50;99.90;;;;;;5026819;28;20057;-73
2021/12/15 11:21:10;;;;;;;9.60;6.15;;;6.60;99.90;;;;;;5027923;28;20084;-73
2021/12/15 11:23:36;;;;;;;8.52;5.28;;;6.80;99.90;;;;;;5023612;28;20048;-73
2021/12/15 11:26:15;;;;;;;7.72;4.90;;;6.70;99.90;;;;;;5025356;28;20029;-73
2021/12/15 11:28:44;;;;;;;8.45;5.55;;;6.50;99.90;;;;;;5018787;28;20538;-73
2021/12/15 11:31:21;;;;;;;10.60;6.40;;;6.40;99.90;;;;;;5025672;28;20025;-73
2021/12/15 11:33:48;;;;;;;9.38;5.22;;;6.60;99.90;;;;;;5026820;28;20025;-73
2021/12/15 11:36:18;;;;;;;10.05;5.15;;;6.50;99.90;;;;;;5026763;28;20518;-73
2021/12/15 11:38:50;;;;;;;7.32;4.95;;;7.00;99.90;;;;;;5027972;28;20033;-74
2021/12/15 11:41:23;;;;;;;9.60;5.28;;;6.90;99.90;;;;;;5026377;28;20133;-74
2021/12/15 11:44:11;;;;;;;9.45;5.10;;;7.00;99.90;;;;;;5004877;28;20559;-74
2021/12/15 11:46:47;;;;;;;8.80;4.93;;;6.90;99.90;;;;;;5018902;28;20069;-74
2021/12/15 11:49:22;;;;;;;9.70;5.28;;;6.90;99.90;;;;;;5005709;28;20030;-74
2021/12/15 11:52:01;;;;;;;9.05;5.32;;;6.70;99.90;;;;;;5027118;28;20041;-74
2021/12/15 11:54:48;;;;;;;8.10;5.40;;;6.80;99.90;;;;;;5026500;28;20149;-74
2021/12/15 11:57:27;;;;;;;12.30;5.53;;;6.90;99.90;;;;;;5026407;28;20036;-74
2021/12/15 11:59:56;;;;;;;7.95;4.63;;;7.40;99.90;;;;;;5028039;28;20053;-74
2021/12/15 12:02:34;;;;;;;8.43;5.30;;;7.40;99.90;;;;;;5026007;28;20036;-75
2021/12/15 12:05:03;;;;;;;9.90;5.30;;;7.20;99.90;;;;;;5026417;28;20026;-74
2021/12/15 12:07:38;;;;;;;8.40;5.28;;;7.10;99.90;;;;;;5008586;28;20032;-74
2021/12/15 12:10:07;;;;;;;8.30;4.88;;;7.30;99.90;;;;;;5027372;28;20021;-74
2021/12/15 12:12:39;;;;;;;9.95;5.70;;;7.20;99.90;;;;;;5009455;28;21320;-74
2021/12/15 12:15:08;;;;;;;8.38;5.30;;;7.50;99.90;;;;;;5031307;28;20022;-74
2021/12/15 12:17:39;;;;;;;9.23;5.60;;;7.70;99.90;;;;;;5032014;28;20033;-73
2021/12/15 12:20:10;;;;;;;10.98;6.15;;;8.20;99.90;;;;;;5031548;28;20091;-72
2021/12/15 12:22:37;;;;;;;7.85;5.32;;;8.30;99.90;;;;;;5031205;28;20029;-72
2021/12/15 12:25:15;;;;;;;8.48;5.22;;;8.00;99.90;;;;;;5026404;28;20021;-74
2021/12/15 12:27:43;;;;;;;9.30;5.72;;;7.80;99.90;;;;;;5027262;28;20148;-74
2021/12/15 12:30:13;;;;;;;10.68;5.75;;;7.90;99.90;;;;;;5031131;28;20022;-75
2021/12/15 12:32:40;;;;;;;9.52;5.70;;;8.10;99.90;;;;;;5031771;28;20033;-73
2021/12/15 12:35:08;;;;;;;10.30;6.00;;;8.10;99.90;;;;;;5030321;28;20502;-72
2021/12/15 12:37:36;;;;;;;10.65;6.07;;;8.20;99.90;;;;;;5030016;28;20026;-74
2021/12/15 12:40:26;;;;;;;11.10;6.03;;;8.40;99.90;;;;;;5030629;28;20030;-75
2021/12/15 12:42:52;;;;;;;8.77;5.95;;;8.60;99.90;;;;;;5006962;28;20033;-74
2021/12/15 12:45:22;;;;;;;8.73;5.90;;;8.50;99.90;;;;;;5029057;28;20044;-75
2021/12/15 12:48:23;;;;;;;9.37;5.83;;;8.40;99.90;;;;;;5031389;28;20042;-74
2021/12/15 12:59:46;;;;;;;9.40;6.13;;;9.20;99.90;;;;;;5008311;28;20040;-73
2021/12/15 13:02:42;;;;;;;9.63;5.95;;;8.90;99.90;;;;;;4987679;28;20045;-73
2021/12/15 13:05:27;;;;;;;10.90;6.55;;;8.50;99.90;;;;;;5003946;28;20060;-73
2021/12/15 13:07:55;;;;;;;9.82;7.07;;;8.80;99.90;;;;;;5007221;28;20038;-72
2021/12/15 13:10:42;;;;;;;13.55;7.95;;;9.10;99.90;;;;;;5001815;28;20027;-73
2021/12/15 13:13:13;;;;;;;17.50;8.07;;;9.00;99.90;;;;;;5008272;28;20037;-75
2021/12/15 13:15:39;;;;;;;15.65;8.80;;;9.30;99.90;;;;;;5007733;28;20044;-74
2021/12/15 13:18:11;;;;;;;13.50;8.20;;;9.20;99.90;;;;;;5009556;28;20033;-72
2021/12/15 13:20:38;;;;;;;13.68;8.85;;;9.30;99.90;;;;;;5008525;28;20096;-73
2021/12/15 13:23:17;;;;;;;14.70;8.68;;;9.60;99.90;;;;;;5007571;28;20397;-73
2021/12/15 13:31:11;;;;;;;13.07;8.40;;;8.80;99.90;;;;;;5029534;28;20443;-74
2021/12/15 13:33:38;;;;;;;16.30;8.75;;;8.70;99.90;;;;;;5030193;28;20025;-73
2021/12/15 13:36:22;;;;;;;16.20;8.35;;;8.70;99.90;;;;;;5027264;28;20025;-73
2021/12/15 13:39:04;;;;;;;14.23;9.48;;;8.80;99.90;;;;;;5031470;28;20033;-73
2021/12/15 13:42:00;;;;;;;14.90;8.25;;;8.80;99.90;;;;;;5029551;28;20029;-73
2021/12/15 13:44:43;;;;;;;13.05;8.45;;;9.00;99.90;;;;;;5007992;28;20095;-73
2021/12/15 13:47:11;;;;;;;11.35;7.00;;;9.20;99.90;;;;;;5026001;28;20041;-73
2021/12/15 13:49:40;;;;;;;13.13;7.70;;;9.20;99.90;;;;;;5008365;28;20101;-73
2021/12/15 13:52:40;;;;;;;11.73;7.57;;;9.00;99.90;;;;;;5018345;28;20028;-73
2021/12/15 13:55:28;;;;;;;12.57;7.80;;;9.00;99.90;;;;;;4987565;28;20042;-72
2021/12/15 13:58:02;;;;;;;14.32;8.57;;;9.10;99.90;;;;;;4987523;28;20046;-73
2021/12/15 14:00:33;;;;;;;15.45;8.85;;;9.30;99.90;;;;;;4987534;28;20073;-73
2021/12/15 14:03:25;;;;;;;13.82;8.07;;;9.30;99.90;;;;;;4989011;28;20212;-73
2021/12/15 14:06:15;;;;;;;14.45;9.15;;;9.10;99.90;;;;;;4978595;28;20057;-73
2021/12/15 14:08:47;;;;;;;14.68;9.15;;;9.30;99.90;;;;;;4988603;28;20069;-73
2021/12/15 14:11:20;;;;;;;12.50;9.05;;;9.20;99.90;;;;;;4987128;28;20513;-73
2021/12/15 14:13:52;;;;;;;13.90;9.00;;;9.40;99.90;;;;;;4987082;28;20030;-73
2021/12/15 14:16:33;;;;;;;12.00;8.65;;;9.20;99.90;;;;;;4986918;28;20034;-73
2021/12/15 14:19:05;;;;;;;14.63;9.50;;;9.30;99.90;;;;;;4987506;28;20124;-73
2021/12/15 14:21:32;;;;;;;12.23;8.55;;;9.30;99.90;;;;;;4987188;28;20049;-73
2021/12/15 14:23:58;;;;;;;11.40;8.48;;;9.30;99.90;;;;;;4988287;28;20096;-73
2021/12/15 14:26:30;;;;;;;12.68;8.68;;;9.30;99.90;;;;;;4986431;28;20049;-73
2021/12/15 14:29:01;;;;;;;11.45;8.57;;;9.20;99.90;;;;;;4970733;28;20471;-73